createdAt,value
2019-01-28T00:00:38.820Z,1.80
2019-01-28T00:03:08.540Z,2.20
2019-01-28T00:05:36.976Z,2.00
2019-01-28T00:08:05.431Z,1.93
2019-01-28T00:10:33.808Z,1.80
2019-01-28T00:13:02.191Z,1.60
2019-01-28T00:15:30.578Z,2.13
2019-01-28T00:17:58.950Z,1.63
2019-01-28T00:20:28.151Z,2.03
2019-01-28T00:22:56.522Z,2.00
2019-01-28T00:25:24.914Z,2.07
2019-01-28T00:27:53.284Z,1.30
2019-01-28T00:30:21.669Z,1.40
2019-01-28T00:32:50.048Z,1.67
2019-01-28T00:35:18.439Z,1.60
2019-01-28T00:37:47.457Z,1.50
2019-01-28T00:40:15.986Z,1.57
2019-01-28T00:42:44.377Z,2.10
2019-01-28T00:45:13.898Z,1.97
2019-01-28T00:47:42.274Z,1.35
2019-01-28T00:50:12.296Z,1.82
2019-01-28T00:52:40.675Z,1.70
2019-01-28T00:55:11.311Z,1.53
2019-01-28T00:57:39.963Z,1.72
2019-01-28T01:00:17.104Z,1.53
2019-01-28T01:02:45.483Z,1.37
2019-01-28T01:05:13.873Z,1.43
2019-01-28T01:07:42.258Z,1.57
2019-01-28T01:10:12.087Z,1.20
2019-01-28T01:12:40.462Z,1.67
2019-01-28T01:15:14.096Z,1.37
2019-01-28T01:17:42.543Z,1.40
2019-01-28T01:20:14.203Z,1.30
2019-01-28T01:22:42.589Z,1.50
2019-01-28T01:25:11.415Z,1.40
2019-01-28T01:27:39.792Z,1.40
2019-01-28T01:30:11.306Z,1.90
2019-01-28T01:32:39.692Z,1.57
2019-01-28T01:35:08.172Z,1.40
2019-01-28T01:37:36.552Z,1.03
2019-01-28T01:40:08.493Z,1.17
2019-01-28T01:42:36.869Z,1.30
2019-01-28T01:45:08.559Z,1.30
2019-01-28T01:47:36.943Z,1.30
2019-01-28T01:50:08.481Z,1.70
2019-01-28T01:52:36.866Z,1.40
2019-01-28T01:55:08.136Z,1.27
2019-01-28T01:57:36.512Z,1.30
2019-01-28T02:00:10.735Z,1.40
2019-01-28T02:02:39.114Z,1.23
2019-01-28T02:05:07.955Z,0.90
2019-01-28T02:07:36.326Z,1.37
2019-01-28T02:10:08.095Z,1.40
2019-01-28T02:12:36.472Z,1.50
2019-01-28T02:15:07.944Z,1.57
2019-01-28T02:17:36.324Z,1.30
2019-01-28T02:20:07.657Z,1.30
2019-01-28T02:22:36.033Z,1.20
2019-01-28T02:25:06.714Z,1.10
2019-01-28T02:27:35.112Z,1.33
2019-01-28T02:30:05.439Z,1.37
2019-01-28T02:32:33.814Z,1.13
2019-01-28T02:35:02.194Z,1.60
2019-01-28T02:37:30.582Z,1.47
2019-01-28T02:39:59.332Z,1.23
2019-01-28T02:42:27.726Z,1.20
2019-01-28T02:44:56.097Z,1.30
2019-01-28T02:47:24.492Z,1.00
2019-01-28T02:49:52.855Z,1.00
2019-01-28T02:52:21.239Z,1.20
2019-01-28T02:54:49.617Z,1.60
2019-01-28T02:57:17.995Z,1.20
2019-01-28T02:59:46.370Z,0.80
2019-01-28T03:02:14.741Z,1.30
2019-01-28T03:04:43.118Z,1.20
2019-01-28T03:07:11.497Z,1.30
2019-01-28T03:09:39.866Z,1.20
2019-01-28T03:12:08.245Z,1.03
2019-01-28T03:14:36.618Z,1.30
2019-01-28T03:17:08.263Z,1.77
2019-01-28T03:19:36.702Z,0.90
2019-01-28T03:22:05.149Z,1.03
2019-01-28T03:24:33.514Z,1.13
2019-01-28T03:27:01.890Z,1.27
2019-01-28T03:29:30.257Z,1.07
2019-01-28T03:31:58.653Z,1.33
2019-01-28T03:34:27.012Z,1.20
2019-01-28T03:36:55.382Z,1.03
2019-01-28T03:39:23.758Z,1.10
2019-01-28T03:41:52.142Z,1.10
2019-01-28T03:44:20.504Z,0.93
2019-01-28T03:46:48.895Z,1.03
2019-01-28T03:49:17.493Z,0.80
2019-01-28T03:51:47.650Z,0.95
2019-01-28T03:54:16.123Z,0.80
2019-01-28T03:56:44.505Z,1.17
2019-01-28T03:59:12.871Z,1.17
2019-01-28T04:01:41.240Z,0.90
2019-01-28T04:04:09.606Z,0.80
2019-01-28T04:06:37.994Z,1.10
2019-01-28T04:09:08.214Z,0.80
2019-01-28T04:11:36.588Z,0.90
2019-01-28T04:14:05.891Z,0.80
2019-01-28T04:16:34.260Z,1.00
2019-01-28T04:19:02.639Z,1.07
2019-01-28T04:21:31.028Z,0.67
2019-01-28T04:24:00.211Z,0.90
2019-01-28T04:26:28.586Z,0.87
2019-01-28T04:28:56.985Z,0.83
2019-01-28T04:31:25.340Z,0.67
2019-01-28T04:33:53.709Z,1.00
2019-01-28T04:36:22.084Z,1.10
2019-01-28T04:38:50.456Z,0.90
2019-01-28T04:41:18.842Z,1.03
2019-01-28T04:43:47.218Z,0.90
2019-01-28T04:46:15.593Z,0.93
2019-01-28T04:48:43.976Z,0.90
2019-01-28T04:51:12.328Z,1.10
2019-01-28T04:53:40.701Z,1.80
2019-01-28T04:56:09.077Z,1.00
2019-01-28T04:58:37.450Z,1.10
2019-01-28T05:01:05.825Z,0.90
2019-01-28T05:03:34.218Z,0.90
2019-01-28T05:06:02.595Z,0.90
2019-01-28T05:08:30.953Z,1.00
2019-01-28T05:10:59.319Z,1.20
2019-01-28T05:13:27.704Z,0.80
2019-01-28T05:15:56.082Z,0.70
2019-01-28T05:18:24.469Z,1.03
2019-01-28T05:20:52.830Z,0.70
2019-01-28T05:23:21.240Z,0.67
2019-01-28T05:25:49.583Z,1.10
2019-01-28T05:28:17.968Z,0.90
2019-01-28T05:30:46.337Z,0.90
2019-01-28T05:33:14.732Z,1.00
2019-01-28T05:35:43.079Z,1.00
2019-01-28T05:38:11.453Z,0.87
2019-01-28T05:40:39.822Z,0.90
2019-01-28T05:43:08.218Z,0.97
2019-01-28T05:45:36.585Z,0.70
2019-01-28T05:48:04.969Z,0.83
2019-01-28T05:50:33.340Z,0.60
2019-01-28T05:53:01.727Z,0.87
2019-01-28T05:55:30.996Z,0.77
2019-01-28T06:00:27.132Z,1.10
2019-01-28T06:02:55.589Z,0.80
2019-01-28T06:05:23.967Z,0.73
2019-01-28T06:07:52.357Z,0.90
2019-01-28T06:10:20.789Z,0.83
2019-01-28T06:12:49.162Z,0.60
2019-01-28T06:15:19.172Z,0.70
2019-01-28T06:17:47.782Z,0.73
2019-01-28T06:20:18.599Z,0.80
2019-01-28T06:22:47.426Z,0.97
2019-01-28T06:25:16.137Z,0.90
2019-01-28T06:27:44.519Z,0.70
2019-01-28T06:30:26.743Z,0.80
2019-01-28T06:32:55.199Z,0.77
2019-01-28T06:35:23.634Z,0.60
2019-01-28T06:37:52.354Z,0.70
2019-01-28T06:40:23.638Z,0.70
2019-01-28T06:42:52.018Z,0.73
2019-01-28T06:45:20.384Z,0.80
2019-01-28T06:47:48.769Z,0.70
2019-01-28T06:50:19.575Z,0.60
2019-01-28T06:52:47.961Z,0.60
2019-01-28T06:55:16.601Z,0.60
2019-01-28T06:57:44.985Z,0.63
2019-01-28T07:00:24.954Z,0.70
2019-01-28T07:02:53.882Z,0.83
2019-01-28T07:05:22.328Z,0.60
2019-01-28T07:07:50.716Z,0.97
2019-01-28T07:10:19.150Z,0.83
2019-01-28T07:12:47.526Z,0.62
2019-01-28T07:15:21.488Z,0.70
2019-01-28T07:17:54.667Z,0.70
2019-01-28T07:20:26.656Z,0.50
2019-01-28T07:22:55.314Z,0.77
2019-01-28T07:25:23.685Z,0.90
2019-01-28T07:27:52.090Z,0.70
2019-01-28T07:30:32.965Z,0.67
2019-01-28T07:33:01.788Z,0.77
2019-01-28T07:35:35.462Z,0.70
2019-01-28T07:38:04.579Z,0.70
2019-01-28T07:40:33.027Z,0.63
2019-01-28T07:43:01.899Z,0.60
2019-01-28T07:45:34.820Z,0.60
2019-01-28T07:48:03.446Z,0.87
2019-01-28T07:50:32.126Z,1.00
2019-01-28T07:53:00.474Z,0.70
2019-01-28T07:55:28.855Z,0.80
2019-01-28T07:57:58.212Z,0.80
2019-01-28T08:00:31.841Z,0.67
2019-01-28T08:03:00.220Z,0.50
2019-01-28T08:05:28.687Z,0.90
2019-01-28T08:07:57.124Z,0.97
2019-01-28T08:10:25.647Z,0.70
2019-01-28T08:12:54.562Z,0.53
2019-01-28T08:15:25.176Z,0.70
2019-01-28T08:17:53.542Z,0.70
2019-01-28T08:20:22.457Z,0.80
2019-01-28T08:22:50.838Z,0.70
2019-01-28T08:25:20.750Z,0.67
2019-01-28T08:27:49.891Z,0.83
2019-01-28T08:30:31.229Z,0.63
2019-01-28T08:32:59.963Z,0.57
2019-01-28T08:35:30.088Z,0.53
2019-01-28T08:37:58.627Z,0.70
2019-01-28T08:40:27.254Z,0.60
2019-01-28T08:42:56.526Z,0.60
2019-01-28T08:45:24.973Z,0.93
2019-01-28T08:47:53.336Z,0.60
2019-01-28T08:50:26.676Z,0.60
2019-01-28T08:52:55.049Z,0.90
2019-01-28T08:55:25.663Z,0.63
2019-01-28T08:57:56.149Z,0.60
2019-01-28T09:00:33.483Z,0.60
2019-01-28T09:03:04.056Z,0.63
2019-01-28T09:05:32.889Z,0.80
2019-01-28T09:08:01.334Z,0.87
2019-01-28T09:10:31.152Z,0.80
2019-01-28T09:12:59.529Z,0.70
2019-01-28T09:15:28.080Z,0.50
2019-01-28T09:17:56.686Z,1.07
2019-01-28T09:20:29.879Z,0.67
2019-01-28T09:22:58.243Z,0.60
2019-01-28T09:25:26.441Z,0.80
2019-01-28T09:27:55.752Z,0.70
2019-01-28T09:30:26.462Z,0.60
2019-01-28T09:32:54.841Z,1.00
2019-01-28T09:35:23.354Z,0.60
2019-01-28T09:37:51.729Z,0.70
2019-01-28T09:40:23.358Z,0.70
2019-01-28T09:42:51.799Z,0.50
2019-01-28T09:45:22.870Z,0.60
2019-01-28T09:47:51.253Z,0.50
2019-01-28T09:50:20.184Z,0.70
2019-01-28T09:52:50.091Z,0.70
2019-01-28T09:55:18.804Z,0.70
2019-01-28T09:57:47.182Z,0.60
2019-01-28T10:00:20.197Z,0.50
2019-01-28T10:02:48.576Z,0.60
2019-01-28T10:05:17.487Z,0.70
2019-01-28T10:07:45.928Z,0.50
2019-01-28T10:10:19.985Z,0.60
2019-01-28T10:12:48.362Z,0.63
2019-01-28T10:15:28.606Z,0.60
2019-01-28T10:17:56.393Z,0.70
2019-01-28T10:20:33.554Z,0.70
2019-01-28T10:23:01.966Z,0.60
2019-01-28T10:25:30.406Z,0.57
2019-01-28T10:27:58.843Z,0.63
2019-01-28T10:30:41.890Z,0.67
2019-01-28T10:33:11.573Z,0.40
2019-01-28T10:35:40.898Z,0.63
2019-01-28T10:38:09.736Z,0.70
2019-01-28T10:40:40.784Z,0.80
2019-01-28T10:43:09.592Z,0.70
2019-01-28T10:45:42.113Z,0.77
2019-01-28T10:48:10.935Z,0.60
2019-01-28T10:50:40.153Z,0.50
2019-01-28T10:53:08.601Z,0.60
2019-01-28T10:55:37.049Z,0.60
2019-01-28T10:58:05.755Z,0.60
2019-01-28T11:00:36.992Z,0.60
2019-01-28T11:03:06.798Z,0.70
2019-01-28T11:05:36.382Z,0.50
2019-01-28T11:08:05.581Z,0.70
2019-01-28T11:10:34.050Z,0.50
2019-01-28T11:13:02.528Z,0.50
2019-01-28T11:15:31.518Z,0.70
2019-01-28T11:18:05.394Z,0.60
2019-01-28T11:20:33.974Z,0.60
2019-01-28T11:23:02.436Z,0.60
2019-01-28T11:25:33.574Z,0.60
2019-01-28T11:28:01.955Z,0.67
2019-01-28T11:30:44.465Z,0.70
2019-01-28T11:33:13.041Z,0.50
2019-01-28T11:35:42.099Z,0.47
2019-01-28T11:38:10.905Z,0.50
2019-01-28T11:40:40.671Z,0.57
2019-01-28T11:43:09.293Z,0.50
2019-01-28T11:45:41.473Z,0.50
2019-01-28T11:48:10.037Z,0.70
2019-01-28T11:50:41.386Z,0.70
2019-01-28T11:53:09.758Z,0.73
2019-01-28T11:55:38.139Z,0.47
2019-01-28T11:58:06.846Z,0.80
2019-01-28T12:00:48.354Z,0.50
2019-01-28T12:03:16.723Z,0.50
2019-01-28T12:05:51.118Z,0.60
2019-01-28T12:08:20.675Z,0.60
2019-01-28T12:10:49.137Z,0.80
2019-01-28T12:13:17.501Z,0.53
2019-01-28T12:15:45.945Z,0.50
2019-01-28T12:18:15.292Z,0.50
2019-01-28T12:20:44.733Z,0.60
2019-01-28T12:23:13.903Z,0.50
2019-01-28T12:25:42.345Z,0.40
2019-01-28T12:28:10.986Z,0.50
2019-01-28T12:30:39.787Z,0.50
2019-01-28T12:33:08.186Z,0.60
2019-01-28T12:35:36.554Z,0.70
2019-01-28T12:38:05.268Z,0.60
2019-01-28T12:40:34.411Z,0.50
2019-01-28T12:43:02.790Z,0.70
2019-01-28T12:45:31.164Z,0.57
2019-01-28T12:47:59.552Z,0.60
2019-01-28T12:50:28.358Z,0.63
2019-01-28T12:52:56.734Z,0.70
2019-01-28T12:55:28.368Z,0.53
2019-01-28T12:57:56.768Z,0.50
2019-01-28T13:00:36.122Z,0.87
2019-01-28T13:03:05.830Z,0.60
2019-01-28T13:05:34.674Z,0.70
2019-01-28T13:08:03.067Z,0.97
2019-01-28T13:10:31.507Z,0.73
2019-01-28T13:12:59.893Z,0.60
2019-01-28T13:15:33.111Z,0.70
2019-01-28T13:18:01.478Z,0.50
2019-01-28T13:20:30.285Z,0.70
2019-01-28T13:22:58.802Z,0.73
2019-01-28T13:25:32.479Z,0.40
2019-01-28T13:28:00.847Z,0.60
2019-01-28T13:30:35.393Z,0.60
2019-01-28T13:33:07.022Z,0.57
2019-01-28T13:35:35.395Z,0.50
2019-01-28T13:38:03.843Z,0.50
2019-01-28T13:40:33.145Z,0.60
2019-01-28T13:43:02.398Z,0.50
2019-01-28T13:45:30.783Z,0.60
2019-01-28T13:47:59.504Z,0.60
2019-01-28T13:50:28.039Z,0.60
2019-01-28T13:52:56.703Z,0.80
2019-01-28T13:55:25.166Z,0.80
2019-01-28T13:57:53.545Z,0.80
2019-01-28T14:00:30.720Z,1.03
2019-01-28T14:02:59.665Z,0.90
2019-01-28T14:05:28.336Z,0.90
2019-01-28T14:07:57.346Z,0.90
2019-01-28T14:10:28.111Z,0.80
2019-01-28T14:12:56.718Z,0.70
2019-01-28T14:15:36.032Z,0.87
2019-01-28T14:18:06.732Z,0.90
2019-01-28T14:20:37.334Z,0.73
2019-01-28T14:23:06.146Z,0.60
2019-01-28T14:25:35.410Z,0.40
2019-01-28T14:28:05.759Z,0.70
2019-01-28T14:30:44.974Z,0.70
2019-01-28T14:33:13.392Z,0.90
2019-01-28T14:35:42.107Z,0.63
2019-01-28T14:38:11.324Z,0.73
2019-01-28T14:40:40.924Z,0.70
2019-01-28T14:43:09.769Z,0.70
2019-01-28T14:45:38.152Z,0.80
2019-01-28T14:48:07.875Z,0.63
2019-01-28T14:50:37.872Z,0.70
2019-01-28T14:53:06.329Z,0.70
2019-01-28T14:55:35.839Z,0.60
2019-01-28T14:58:05.557Z,0.77
2019-01-28T15:00:38.917Z,0.50
2019-01-28T15:03:07.407Z,0.70
2019-01-28T15:05:36.802Z,0.70
2019-01-28T15:08:06.472Z,0.60
2019-01-28T15:10:35.761Z,0.70
2019-01-28T15:13:04.999Z,0.57
2019-01-28T15:15:38.320Z,0.60
2019-01-28T15:18:08.041Z,0.70
2019-01-28T15:20:36.406Z,0.60
2019-01-28T15:23:05.789Z,0.80
2019-01-28T15:25:34.162Z,1.20
2019-01-28T15:28:02.712Z,0.70
2019-01-28T15:30:32.015Z,0.70
2019-01-28T15:33:00.604Z,0.63
2019-01-28T15:35:28.988Z,0.60
2019-01-28T15:37:57.373Z,0.67
2019-01-28T15:40:32.240Z,0.70
2019-01-28T15:43:00.705Z,0.70
2019-01-28T15:45:31.615Z,0.60
2019-01-28T15:47:59.993Z,0.80
2019-01-28T15:50:28.367Z,0.57
2019-01-28T15:52:56.743Z,0.50
2019-01-28T15:55:33.616Z,0.73
2019-01-28T15:58:02.162Z,0.80
2019-01-28T16:00:33.132Z,0.60
2019-01-28T16:03:02.277Z,0.70
2019-01-28T16:05:30.643Z,0.67
2019-01-28T16:07:59.013Z,0.73
2019-01-28T16:10:28.363Z,0.70
2019-01-28T16:12:56.803Z,0.80
2019-01-28T16:15:33.913Z,0.70
2019-01-28T16:18:02.434Z,0.80
2019-01-28T16:20:30.804Z,0.80
2019-01-28T16:22:59.331Z,0.60
2019-01-28T16:25:27.714Z,0.80
2019-01-28T16:27:56.084Z,0.90
2019-01-28T16:30:26.916Z,0.70
2019-01-28T16:32:55.453Z,0.83
2019-01-28T16:35:24.002Z,0.90
2019-01-28T16:37:54.104Z,1.13
2019-01-28T16:40:27.847Z,0.98
2019-01-28T16:42:57.364Z,1.20
2019-01-28T16:45:26.921Z,1.53
2019-01-28T16:47:56.271Z,1.57
2019-01-28T16:50:32.688Z,1.83
2019-01-28T16:53:01.082Z,1.50
2019-01-28T16:55:29.457Z,0.90
2019-01-28T16:57:58.865Z,1.00
2019-01-28T17:00:29.492Z,1.07
2019-01-28T17:02:57.859Z,0.90
2019-01-28T17:05:26.759Z,0.63
2019-01-28T17:07:55.186Z,0.90
2019-01-28T17:10:24.031Z,1.30
2019-01-28T17:12:52.401Z,1.10
2019-01-28T17:15:24.555Z,0.90
2019-01-28T17:17:52.989Z,0.90
2019-01-28T17:20:35.135Z,1.13
2019-01-28T17:22:59.949Z,0.97
2019-01-28T17:25:34.179Z,0.83
2019-01-28T17:28:02.621Z,1.20
2019-01-28T17:30:35.979Z,0.80
2019-01-28T17:33:05.690Z,1.00
2019-01-28T17:35:34.124Z,0.97
2019-01-28T17:38:02.486Z,1.00
2019-01-28T17:40:32.412Z,1.30
2019-01-28T17:43:00.781Z,0.90
2019-01-28T17:45:29.401Z,1.07
2019-01-28T17:47:58.238Z,1.00
2019-01-28T17:50:27.282Z,1.27
2019-01-28T17:52:55.721Z,0.80
2019-01-28T17:55:24.101Z,1.10
2019-01-28T17:57:52.475Z,1.00
2019-01-28T18:00:30.132Z,1.00
2019-01-28T18:03:00.457Z,1.00
2019-01-28T18:05:30.801Z,1.00
2019-01-28T18:07:59.183Z,1.10
2019-01-28T18:10:30.616Z,0.90
2019-01-28T18:12:58.992Z,1.20
2019-01-28T18:15:28.318Z,1.00
2019-01-28T18:17:56.694Z,1.20
2019-01-28T18:20:25.154Z,1.00
2019-01-28T18:22:53.588Z,1.23
2019-01-28T18:25:34.440Z,1.30
2019-01-28T18:28:03.092Z,1.30
2019-01-28T18:30:44.214Z,1.00
2019-01-28T18:33:12.582Z,1.10
2019-01-28T18:35:40.974Z,1.10
2019-01-28T18:38:09.784Z,1.43
2019-01-28T18:40:38.163Z,1.33
2019-01-28T18:43:07.929Z,1.13
2019-01-28T18:45:36.649Z,1.27
2019-01-28T18:48:06.475Z,1.30
2019-01-28T18:50:38.260Z,1.50
2019-01-28T18:53:07.581Z,1.17
2019-01-28T18:55:35.912Z,1.27
2019-01-28T18:58:04.817Z,1.50
2019-01-28T19:00:34.539Z,1.40
2019-01-28T19:03:02.976Z,1.47
2019-01-28T19:05:49.149Z,1.30
2019-01-28T19:08:30.858Z,1.07
2019-01-28T19:11:09.538Z,1.10
2019-01-28T19:13:57.323Z,0.80
2019-01-28T19:16:30.099Z,1.10
2019-01-28T19:19:02.552Z,1.30
2019-01-28T19:21:47.489Z,1.10
2019-01-28T19:24:15.854Z,1.00
2019-01-28T19:26:44.250Z,1.37
2019-01-28T19:29:12.628Z,1.40
2019-01-28T19:31:41.011Z,1.07
2019-01-28T19:34:09.399Z,0.90
2019-01-28T19:36:37.921Z,1.07
2019-01-28T19:39:08.623Z,0.90
2019-01-28T19:41:38.049Z,1.27
2019-01-28T19:44:06.511Z,1.43
2019-01-28T19:46:34.912Z,1.30
2019-01-28T19:49:03.283Z,1.13
2019-01-28T19:51:31.657Z,1.07
2019-01-28T19:54:00.033Z,1.30
2019-01-28T19:56:28.419Z,1.10
2019-01-28T19:58:57.759Z,1.10
2019-01-28T20:01:26.152Z,1.10
2019-01-28T20:03:54.516Z,1.20
2019-01-28T20:06:22.903Z,1.30
2019-01-28T20:08:51.275Z,1.47
2019-01-28T20:11:19.653Z,1.17
2019-01-28T20:13:48.067Z,1.50
2019-01-28T20:16:16.448Z,1.30
2019-01-28T20:18:44.817Z,1.27
2019-01-28T20:21:13.216Z,0.90
2019-01-28T20:23:41.595Z,1.00
2019-01-28T20:26:09.954Z,0.87
2019-01-28T20:28:38.355Z,1.50
2019-01-28T20:31:06.969Z,1.00
2019-01-28T20:33:35.342Z,1.10
2019-01-28T20:36:03.891Z,1.23
2019-01-28T20:38:32.265Z,1.17
2019-01-28T20:41:00.652Z,1.20
2019-01-28T20:43:29.025Z,1.50
2019-01-28T20:45:57.426Z,1.20
2019-01-28T20:48:25.783Z,1.00
2019-01-28T20:50:54.158Z,1.10
2019-01-28T20:53:22.532Z,1.10
2019-01-28T20:55:50.962Z,0.90
2019-01-28T20:58:19.387Z,1.10
2019-01-28T21:00:47.775Z,1.20
2019-01-28T21:03:16.447Z,0.90
2019-01-28T21:05:44.816Z,1.40
2019-01-28T21:08:13.168Z,1.20
2019-01-28T21:10:41.592Z,1.03
2019-01-28T21:13:10.261Z,0.90
2019-01-28T21:15:44.668Z,0.90
2019-01-28T21:18:13.183Z,1.10
2019-01-28T21:20:41.544Z,0.90
2019-01-28T21:23:09.919Z,0.80
2019-01-28T21:25:38.893Z,1.10
2019-01-28T21:28:07.282Z,1.20
2019-01-28T21:30:36.001Z,1.15
2019-01-28T21:33:04.570Z,1.40
2019-01-28T21:35:37.383Z,1.10
2019-01-28T21:38:07.404Z,0.93
2019-01-28T21:40:35.764Z,0.83
2019-01-28T21:43:04.578Z,1.00
2019-01-28T21:45:32.942Z,0.97
2019-01-28T21:48:01.317Z,1.10
2019-01-28T21:50:29.699Z,1.13
2019-01-28T21:52:58.097Z,1.10
2019-01-28T21:55:26.468Z,1.23
2019-01-28T21:57:54.858Z,0.83
2019-01-28T22:00:23.304Z,0.70
2019-01-28T22:02:51.715Z,1.00
2019-01-28T22:05:20.052Z,1.17
2019-01-28T22:07:48.435Z,1.00
2019-01-28T22:10:16.940Z,1.00
2019-01-28T22:12:45.326Z,1.27
2019-01-28T22:15:18.464Z,1.25
2019-01-28T22:17:46.833Z,1.20
2019-01-28T22:20:15.877Z,1.30
2019-01-28T22:22:44.430Z,1.27
2019-01-28T22:25:17.021Z,1.37
2019-01-28T22:27:45.383Z,1.40
2019-01-28T22:30:19.338Z,1.03
2019-01-28T22:32:47.894Z,1.20
2019-01-28T22:35:16.258Z,1.03
2019-01-28T22:37:44.632Z,1.10
2019-01-28T22:40:15.046Z,1.37
2019-01-28T22:42:43.433Z,1.20
2019-01-28T22:45:14.783Z,1.10
2019-01-28T22:47:43.164Z,1.10
2019-01-28T22:50:16.866Z,1.00
2019-01-28T22:52:45.625Z,1.10
2019-01-28T22:55:16.434Z,1.00
2019-01-28T22:57:44.817Z,1.40
2019-01-28T23:00:20.414Z,1.30
2019-01-28T23:02:48.866Z,1.20
2019-01-28T23:05:17.159Z,1.20
2019-01-28T23:07:45.549Z,1.22
2019-01-28T23:10:13.928Z,1.50
2019-01-28T23:12:42.341Z,1.23
2019-01-28T23:15:11.463Z,1.40
2019-01-28T23:17:39.843Z,1.33
2019-01-28T23:20:09.359Z,1.37
2019-01-28T23:22:37.741Z,1.30
2019-01-28T23:25:06.852Z,1.90
2019-01-28T23:27:35.232Z,1.60
2019-01-28T23:30:04.911Z,1.60
2019-01-28T23:32:33.291Z,1.53
2019-01-28T23:35:01.658Z,1.57
2019-01-28T23:37:30.034Z,1.57
2019-01-28T23:39:58.402Z,1.47
2019-01-28T23:42:26.778Z,1.90
2019-01-28T23:44:55.157Z,1.70
2019-01-28T23:47:23.624Z,1.90
2019-01-28T23:49:52.042Z,1.63
2019-01-28T23:52:25.077Z,1.70
2019-01-28T23:54:50.533Z,1.80
2019-01-28T23:57:18.922Z,1.67
2019-01-28T23:59:47.293Z,1.60
